Fairlight, United Kingdom
Current Conditions -  °F | °C
As of 12:50 PM on Tuesday 21 Oct 2014 (Local Time) from EGMD Reporting Station
Scattered Clouds Scattered Clouds  
Wind Chill: 59°   Ceiling: Unl
Heat Index: 59°   Visibility: 6mi
Dew Point: 45°   Wind: 32mph
Humidity: 59%   Direction: 280°W
Pressure: 29.68"   Gusts: NA
Location:  50.88°N, 0.65°E
Report Text: EGMD 211150Z 28028KT 9999 SCT041 15/07 Q1005
Loading
Personal Weather Stations






























Interactive Weather Map
Tropical Storm Tracking
New forecast layout! Learn more

10-Day Weather Forecast

Advertisements
Track Severe Weather on mobile